Canaseraga, New York
Current Conditions -  °F | °C
As of 6:54 AM on Wednesday 28 Jan 2015 (Local Time) from KDSV Reporting Station
Clear Clear  
Wind Chill: -6°   Ceiling: Unl
Heat Index: -6°   Visibility: 10mi
Dew Point: -11°   Wind: 0mph
Humidity: 79%   Direction: NA
Pressure: 30.2"   Gusts: NA
Location:  42.46°N, 77.78°W
Report Text: KDSV 281154Z AUTO 00000KT 10SM CLR M21/M24 A3020 RMK AO2 SLP253 I6000 T12111239 11189 21211 53026 $
Loading
Personal Weather Stations






























Interactive Weather Map New forecast layout! Learn more

10-Day Weather Forecast

Advertisements
Track Severe Weather on mobile